sensor_id;sensor_type;location;lat;lon;timestamp;pressure;altitude;pressure_sealevel;temperature;humidity
49055;BME280;35405;52.344;14.530;2024-03-08T00:01:04;101841.00;;;1.47;64.26
49055;BME280;35405;52.344;14.530;2024-03-08T00:03:31;101830.41;;;1.39;64.91
49055;BME280;35405;52.344;14.530;2024-03-08T00:05:57;101837.00;;;1.31;64.90
49055;BME280;35405;52.344;14.530;2024-03-08T00:08:22;101833.50;;;1.29;65.17
49055;BME280;35405;52.344;14.530;2024-03-08T00:10:48;101834.91;;;1.21;65.33
49055;BME280;35405;52.344;14.530;2024-03-08T00:13:13;101831.31;;;1.17;65.13
49055;BME280;35405;52.344;14.530;2024-03-08T00:15:38;101836.59;;;1.20;65.63
49055;BME280;35405;52.344;14.530;2024-03-08T00:18:04;101821.16;;;1.20;65.58
49055;BME280;35405;52.344;14.530;2024-03-08T00:20:29;101822.41;;;1.09;65.42
49055;BME280;35405;52.344;14.530;2024-03-08T00:22:54;101835.34;;;1.10;65.76
49055;BME280;35405;52.344;14.530;2024-03-08T00:25:22;101829.03;;;1.02;65.74
49055;BME280;35405;52.344;14.530;2024-03-08T00:27:48;101828.22;;;1.03;65.84
49055;BME280;35405;52.344;14.530;2024-03-08T00:30:14;101823.66;;;0.96;65.85
49055;BME280;35405;52.344;14.530;2024-03-08T00:32:39;101822.66;;;0.93;66.21
49055;BME280;35405;52.344;14.530;2024-03-08T00:35:05;101818.88;;;0.85;66.34
49055;BME280;35405;52.344;14.530;2024-03-08T00:37:33;101826.41;;;0.78;66.30
49055;BME280;35405;52.344;14.530;2024-03-08T00:40:01;101825.44;;;0.76;66.47
49055;BME280;35405;52.344;14.530;2024-03-08T00:42:27;101819.16;;;0.70;66.39
49055;BME280;35405;52.344;14.530;2024-03-08T00:44:52;101819.41;;;0.76;67.00
49055;BME280;35405;52.344;14.530;2024-03-08T00:47:18;101814.00;;;0.70;67.09
49055;BME280;35405;52.344;14.530;2024-03-08T00:49:44;101812.31;;;0.70;66.82
49055;BME280;35405;52.344;14.530;2024-03-08T00:52:09;101809.09;;;0.76;66.81
49055;BME280;35405;52.344;14.530;2024-03-08T00:54:35;101810.81;;;0.75;66.52
49055;BME280;35405;52.344;14.530;2024-03-08T00:57:03;101809.94;;;0.75;66.99
49055;BME280;35405;52.344;14.530;2024-03-08T00:59:29;101797.97;;;0.77;67.28
49055;BME280;35405;52.344;14.530;2024-03-08T01:01:54;101803.97;;;0.76;66.57
49055;BME280;35405;52.344;14.530;2024-03-08T01:04:20;101798.84;;;0.77;67.32
49055;BME280;35405;52.344;14.530;2024-03-08T01:06:49;101796.47;;;0.82;66.94
49055;BME280;35405;52.344;14.530;2024-03-08T01:09:15;101796.75;;;0.90;67.04
49055;BME280;35405;52.344;14.530;2024-03-08T01:11:42;101794.81;;;0.84;66.81
49055;BME280;35405;52.344;14.530;2024-03-08T01:14:07;101800.16;;;0.89;67.35
49055;BME280;35405;52.344;14.530;2024-03-08T01:16:33;101790.78;;;0.91;67.07
49055;BME280;35405;52.344;14.530;2024-03-08T01:18:58;101792.56;;;0.92;66.95
49055;BME280;35405;52.344;14.530;2024-03-08T01:21:23;101790.50;;;0.83;67.21
49055;BME280;35405;52.344;14.530;2024-03-08T01:23:49;101785.28;;;0.81;67.04
49055;BME280;35405;52.344;14.530;2024-03-08T01:26:14;101795.50;;;0.78;67.91
49055;BME280;35405;52.344;14.530;2024-03-08T01:28:40;101791.47;;;0.85;67.70
49055;BME280;35405;52.344;14.530;2024-03-08T01:31:05;101789.66;;;0.84;67.52
49055;BME280;35405;52.344;14.530;2024-03-08T01:33:31;101785.81;;;0.73;67.56
49055;BME280;35405;52.344;14.530;2024-03-08T01:35:56;101788.34;;;0.71;67.59
49055;BME280;35405;52.344;14.530;2024-03-08T01:38:22;101777.28;;;0.74;67.78
49055;BME280;35405;52.344;14.530;2024-03-08T01:40:48;101773.94;;;0.76;67.41
49055;BME280;35405;52.344;14.530;2024-03-08T01:45:41;101773.25;;;0.80;67.45
49055;BME280;35405;52.344;14.530;2024-03-08T01:48:07;101769.66;;;0.77;67.81
49055;BME280;35405;52.344;14.530;2024-03-08T01:50:32;101763.72;;;0.78;67.32
49055;BME280;35405;52.344;14.530;2024-03-08T01:52:57;101761.00;;;0.75;67.12
49055;BME280;35405;52.344;14.530;2024-03-08T01:55:27;101759.81;;;0.67;67.32
49055;BME280;35405;52.344;14.530;2024-03-08T01:57:53;101756.09;;;0.59;67.54
49055;BME280;35405;52.344;14.530;2024-03-08T02:00:18;101764.25;;;0.48;67.56
49055;BME280;35405;52.344;14.530;2024-03-08T02:02:48;101755.84;;;0.52;68.31
49055;BME280;35405;52.344;14.530;2024-03-08T02:05:14;101757.09;;;0.41;67.89
49055;BME280;35405;52.344;14.530;2024-03-08T02:07:43;101759.25;;;0.31;68.43
49055;BME280;35405;52.344;14.530;2024-03-08T02:10:11;101753.97;;;0.27;68.47
49055;BME280;35405;52.344;14.530;2024-03-08T02:12:37;101743.69;;;0.27;68.14
49055;BME280;35405;52.344;14.530;2024-03-08T02:15:03;101741.56;;;0.17;68.76
49055;BME280;35405;52.344;14.530;2024-03-08T02:17:28;101746.66;;;0.16;68.52
49055;BME280;35405;52.344;14.530;2024-03-08T02:19:59;101756.81;;;0.13;68.58
49055;BME280;35405;52.344;14.530;2024-03-08T02:22:27;101747.69;;;0.21;68.78
49055;BME280;35405;52.344;14.530;2024-03-08T02:24:52;101741.50;;;0.16;68.69
49055;BME280;35405;52.344;14.530;2024-03-08T02:27:23;101746.72;;;0.17;68.57
49055;BME280;35405;52.344;14.530;2024-03-08T02:29:48;101746.81;;;0.20;69.25
49055;BME280;35405;52.344;14.530;2024-03-08T02:32:13;101745.78;;;0.15;68.98
49055;BME280;35405;52.344;14.530;2024-03-08T02:34:39;101740.53;;;0.14;69.30
49055;BME280;35405;52.344;14.530;2024-03-08T02:37:04;101740.38;;;0.09;68.92
49055;BME280;35405;52.344;14.530;2024-03-08T02:39:30;101742.91;;;0.08;69.61
49055;BME280;35405;52.344;14.530;2024-03-08T02:41:57;101743.88;;;0.11;69.39
49055;BME280;35405;52.344;14.530;2024-03-08T02:44:22;101736.16;;;0.11;69.91
49055;BME280;35405;52.344;14.530;2024-03-08T02:46:48;101735.34;;;0.12;69.92
49055;BME280;35405;52.344;14.530;2024-03-08T02:49:15;101739.31;;;0.04;69.66
49055;BME280;35405;52.344;14.530;2024-03-08T02:51:43;101734.94;;;0.02;68.95
49055;BME280;35405;52.344;14.530;2024-03-08T02:54:09;101737.44;;;0.00;69.65
49055;BME280;35405;52.344;14.530;2024-03-08T02:56:35;101727.78;;;-0.06;69.27
49055;BME280;35405;52.344;14.530;2024-03-08T02:59:00;101732.78;;;-0.09;70.10
49055;BME280;35405;52.344;14.530;2024-03-08T03:01:28;101730.97;;;-0.11;69.83
49055;BME280;35405;52.344;14.530;2024-03-08T03:03:54;101730.81;;;-0.14;69.99
49055;BME280;35405;52.344;14.530;2024-03-08T03:06:23;101734.97;;;-0.18;69.67
49055;BME280;35405;52.344;14.530;2024-03-08T03:08:48;101737.91;;;-0.30;69.61
49055;BME280;35405;52.344;14.530;2024-03-08T03:11:13;101738.88;;;-0.28;69.93
49055;BME280;35405;52.344;14.530;2024-03-08T03:13:39;101743.75;;;-0.34;69.66
49055;BME280;35405;52.344;14.530;2024-03-08T03:16:04;101739.47;;;-0.33;69.50
49055;BME280;35405;52.344;14.530;2024-03-08T03:18:30;101733.63;;;-0.29;70.04
49055;BME280;35405;52.344;14.530;2024-03-08T03:20:57;101736.09;;;-0.32;69.85
49055;BME280;35405;52.344;14.530;2024-03-08T03:23:23;101738.53;;;-0.35;69.89
49055;BME280;35405;52.344;14.530;2024-03-08T03:25:48;101736.84;;;-0.35;70.49
49055;BME280;35405;52.344;14.530;2024-03-08T03:28:13;101735.00;;;-0.37;70.43
49055;BME280;35405;52.344;14.530;2024-03-08T03:30:42;101730.75;;;-0.37;70.10
49055;BME280;35405;52.344;14.530;2024-03-08T03:33:08;101734.78;;;-0.22;69.87
49055;BME280;35405;52.344;14.530;2024-03-08T03:35:34;101724.56;;;-0.21;70.09
49055;BME280;35405;52.344;14.530;2024-03-08T03:38:01;101725.63;;;-0.16;70.47
49055;BME280;35405;52.344;14.530;2024-03-08T03:40:30;101726.44;;;-0.17;70.29
49055;BME280;35405;52.344;14.530;2024-03-08T03:42:56;101726.44;;;-0.17;70.47
49055;BME280;35405;52.344;14.530;2024-03-08T03:45:24;101724.00;;;-0.14;70.17
49055;BME280;35405;52.344;14.530;2024-03-08T03:47:50;101724.69;;;-0.18;70.34
49055;BME280;35405;52.344;14.530;2024-03-08T03:50:16;101727.75;;;-0.26;70.51
49055;BME280;35405;52.344;14.530;2024-03-08T03:52:44;101725.13;;;-0.28;70.61
49055;BME280;35405;52.344;14.530;2024-03-08T03:55:11;101727.16;;;-0.21;70.70
49055;BME280;35405;52.344;14.530;2024-03-08T03:57:37;101729.75;;;-0.40;70.21
49055;BME280;35405;52.344;14.530;2024-03-08T04:00:03;101728.00;;;-0.41;70.58
49055;BME280;35405;52.344;14.530;2024-03-08T04:02:31;101720.97;;;-0.45;69.96
49055;BME280;35405;52.344;14.530;2024-03-08T04:04:56;101726.66;;;-0.52;70.34
49055;BME280;35405;52.344;14.530;2024-03-08T04:07:22;101725.56;;;-0.58;70.20
49055;BME280;35405;52.344;14.530;2024-03-08T04:09:47;101720.31;;;-0.61;70.97
49055;BME280;35405;52.344;14.530;2024-03-08T04:12:12;101725.56;;;-0.58;70.51
49055;BME280;35405;52.344;14.530;2024-03-08T04:14:41;101717.69;;;-0.62;70.60
49055;BME280;35405;52.344;14.530;2024-03-08T04:17:06;101722.56;;;-0.68;70.93
49055;BME280;35405;52.344;14.530;2024-03-08T04:19:33;101722.72;;;-0.64;71.13
49055;BME280;35405;52.344;14.530;2024-03-08T04:21:59;101716.66;;;-0.66;71.50
49055;BME280;35405;52.344;14.530;2024-03-08T04:24:26;101721.06;;;-0.63;71.37
49055;BME280;35405;52.344;14.530;2024-03-08T04:26:51;101717.25;;;-0.71;71.31
49055;BME280;35405;52.344;14.530;2024-03-08T04:29:17;101719.59;;;-0.77;71.63
49055;BME280;35405;52.344;14.530;2024-03-08T04:31:42;101715.22;;;-0.78;71.17
49055;BME280;35405;52.344;14.530;2024-03-08T04:34:07;101712.59;;;-0.80;71.62
49055;BME280;35405;52.344;14.530;2024-03-08T04:36:33;101711.66;;;-0.82;71.07
49055;BME280;35405;52.344;14.530;2024-03-08T04:38:59;101714.44;;;-0.77;71.61
49055;BME280;35405;52.344;14.530;2024-03-08T04:41:24;101709.38;;;-0.76;71.93
49055;BME280;35405;52.344;14.530;2024-03-08T04:43:50;101716.09;;;-0.78;71.65
49055;BME280;35405;52.344;14.530;2024-03-08T04:46:15;101712.06;;;-0.73;71.69
49055;BME280;35405;52.344;14.530;2024-03-08T04:48:41;101705.16;;;-0.74;71.98
49055;BME280;35405;52.344;14.530;2024-03-08T04:51:07;101708.75;;;-0.70;71.94
49055;BME280;35405;52.344;14.530;2024-03-08T04:53:32;101703.25;;;-0.78;71.12
49055;BME280;35405;52.344;14.530;2024-03-08T04:55:59;101702.59;;;-0.74;71.75
49055;BME280;35405;52.344;14.530;2024-03-08T04:58:24;101697.53;;;-0.72;71.99
49055;BME280;35405;52.344;14.530;2024-03-08T05:00:49;101696.69;;;-0.71;71.50
49055;BME280;35405;52.344;14.530;2024-03-08T05:03:15;101702.88;;;-0.68;71.27
49055;BME280;35405;52.344;14.530;2024-03-08T05:05:41;101698.53;;;-0.69;71.45
49055;BME280;35405;52.344;14.530;2024-03-08T05:08:09;101704.69;;;-0.65;71.78
49055;BME280;35405;52.344;14.530;2024-03-08T05:10:34;101704.50;;;-0.70;71.50
49055;BME280;35405;52.344;14.530;2024-03-08T05:13:00;101711.34;;;-0.70;71.69
49055;BME280;35405;52.344;14.530;2024-03-08T05:15:26;101714.09;;;-0.85;71.43
49055;BME280;35405;52.344;14.530;2024-03-08T05:17:51;101704.56;;;-0.88;72.03
49055;BME280;35405;52.344;14.530;2024-03-08T05:20:16;101709.50;;;-0.92;71.90
49055;BME280;35405;52.344;14.530;2024-03-08T05:22:45;101707.06;;;-0.89;71.78
49055;BME280;35405;52.344;14.530;2024-03-08T05:25:14;101707.19;;;-0.86;72.10
49055;BME280;35405;52.344;14.530;2024-03-08T05:27:39;101705.66;;;-0.82;71.83
49055;BME280;35405;52.344;14.530;2024-03-08T05:30:05;101706.59;;;-0.80;71.27
49055;BME280;35405;52.344;14.530;2024-03-08T05:32:31;101699.16;;;-0.74;71.71
49055;BME280;35405;52.344;14.530;2024-03-08T05:34:56;101697.66;;;-0.69;71.91
49055;BME280;35405;52.344;14.530;2024-03-08T05:37:22;101703.13;;;-0.62;71.34
49055;BME280;35405;52.344;14.530;2024-03-08T05:39:47;101697.22;;;-0.59;71.73
49055;BME280;35405;52.344;14.530;2024-03-08T05:42:12;101696.84;;;-0.68;71.13
49055;BME280;35405;52.344;14.530;2024-03-08T05:44:37;101702.53;;;-0.75;71.60
49055;BME280;35405;52.344;14.530;2024-03-08T05:47:05;101697.19;;;-0.80;71.59
49055;BME280;35405;52.344;14.530;2024-03-08T05:49:32;101699.09;;;-0.76;72.45
49055;BME280;35405;52.344;14.530;2024-03-08T05:51:57;101697.03;;;-0.64;72.29
49055;BME280;35405;52.344;14.530;2024-03-08T05:54:22;101694.72;;;-0.58;71.72
49055;BME280;35405;52.344;14.530;2024-03-08T05:56:49;101697.22;;;-0.59;71.43
49055;BME280;35405;52.344;14.530;2024-03-08T05:59:17;101699.25;;;-0.52;71.98
49055;BME280;35405;52.344;14.530;2024-03-08T06:01:43;101692.00;;;-0.41;71.67
49055;BME280;35405;52.344;14.530;2024-03-08T06:04:08;101696.72;;;-0.31;72.01
49055;BME280;35405;52.344;14.530;2024-03-08T06:06:34;101699.59;;;-0.23;71.68
49055;BME280;35405;52.344;14.530;2024-03-08T06:08:59;101698.97;;;-0.18;71.59
49055;BME280;35405;52.344;14.530;2024-03-08T06:11:25;101703.56;;;-0.11;71.79
49055;BME280;35405;52.344;14.530;2024-03-08T06:13:53;101703.75;;;-0.06;71.85
49055;BME280;35405;52.344;14.530;2024-03-08T06:16:27;101704.13;;;0.03;71.52
49055;BME280;35405;52.344;14.530;2024-03-08T06:18:54;101707.75;;;0.08;72.16
49055;BME280;35405;52.344;14.530;2024-03-08T06:21:20;101700.41;;;0.17;71.76
49055;BME280;35405;52.344;14.530;2024-03-08T06:23:47;101699.94;;;0.27;71.19
49055;BME280;35405;52.344;14.530;2024-03-08T06:26:13;101702.59;;;0.29;71.69
49055;BME280;35405;52.344;14.530;2024-03-08T06:28:38;101699.06;;;0.27;71.49
49055;BME280;35405;52.344;14.530;2024-03-08T06:31:03;101696.97;;;0.39;71.53
49055;BME280;35405;52.344;14.530;2024-03-08T06:33:29;101695.78;;;0.53;71.82
49055;BME280;35405;52.344;14.530;2024-03-08T06:35:54;101703.94;;;0.64;71.47
49055;BME280;35405;52.344;14.530;2024-03-08T06:38:22;101710.31;;;0.74;71.26
49055;BME280;35405;52.344;14.530;2024-03-08T06:40:47;101708.28;;;0.89;71.75
49055;BME280;35405;52.344;14.530;2024-03-08T06:43:13;101696.69;;;1.00;71.14
49055;BME280;35405;52.344;14.530;2024-03-08T06:45:42;101703.06;;;1.10;71.20
49055;BME280;35405;52.344;14.530;2024-03-08T06:48:13;101702.34;;;1.14;71.55
49055;BME280;35405;52.344;14.530;2024-03-08T06:50:41;101698.13;;;1.16;71.43
49055;BME280;35405;52.344;14.530;2024-03-08T06:53:10;101696.25;;;1.12;72.08
49055;BME280;35405;52.344;14.530;2024-03-08T06:55:35;101703.44;;;1.21;72.33
49055;BME280;35405;52.344;14.530;2024-03-08T06:58:00;101698.59;;;1.30;72.33
49055;BME280;35405;52.344;14.530;2024-03-08T07:00:26;101707.63;;;1.41;72.38
49055;BME280;35405;52.344;14.530;2024-03-08T07:02:56;101702.50;;;1.43;72.58
49055;BME280;35405;52.344;14.530;2024-03-08T07:05:22;101697.91;;;1.59;72.27
49055;BME280;35405;52.344;14.530;2024-03-08T07:07:51;101702.66;;;1.73;71.63
49055;BME280;35405;52.344;14.530;2024-03-08T07:10:18;101703.78;;;1.81;71.58
49055;BME280;35405;52.344;14.530;2024-03-08T07:12:53;101702.09;;;1.81;71.82
49055;BME280;35405;52.344;14.530;2024-03-08T07:15:21;101709.13;;;1.85;71.31
49055;BME280;35405;52.344;14.530;2024-03-08T07:17:48;101707.50;;;1.89;71.26
49055;BME280;35405;52.344;14.530;2024-03-08T07:20:13;101700.16;;;2.01;70.86
49055;BME280;35405;52.344;14.530;2024-03-08T07:22:40;101698.25;;;2.23;70.44
49055;BME280;35405;52.344;14.530;2024-03-08T07:25:06;101691.63;;;2.31;69.77
49055;BME280;35405;52.344;14.530;2024-03-08T07:27:49;101695.91;;;2.30;69.87
49055;BME280;35405;52.344;14.530;2024-03-08T07:30:16;101698.72;;;2.38;69.96
49055;BME280;35405;52.344;14.530;2024-03-08T07:33:01;101700.06;;;2.54;69.34
49055;BME280;35405;52.344;14.530;2024-03-08T07:35:27;101699.56;;;2.65;69.01
49055;BME280;35405;52.344;14.530;2024-03-08T07:37:52;101686.88;;;2.73;68.94
49055;BME280;35405;52.344;14.530;2024-03-08T07:40:21;101692.34;;;2.82;68.26
49055;BME280;35405;52.344;14.530;2024-03-08T07:42:46;101689.03;;;2.88;68.06
49055;BME280;35405;52.344;14.530;2024-03-08T07:45:12;101690.28;;;3.02;68.06
49055;BME280;35405;52.344;14.530;2024-03-08T07:47:37;101687.72;;;3.02;67.89
49055;BME280;35405;52.344;14.530;2024-03-08T07:50:03;101689.56;;;3.06;67.50
49055;BME280;35405;52.344;14.530;2024-03-08T07:52:28;101682.88;;;2.83;67.27
49055;BME280;35405;52.344;14.530;2024-03-08T07:54:54;101679.66;;;2.91;67.29
49055;BME280;35405;52.344;14.530;2024-03-08T07:57:19;101680.81;;;3.02;67.39
49055;BME280;35405;52.344;14.530;2024-03-08T07:59:45;101685.31;;;3.08;67.27
49055;BME280;35405;52.344;14.530;2024-03-08T08:02:10;101675.97;;;3.13;66.87
49055;BME280;35405;52.344;14.530;2024-03-08T08:04:35;101675.31;;;3.20;66.65
49055;BME280;35405;52.344;14.530;2024-03-08T08:07:01;101674.28;;;3.15;66.93
49055;BME280;35405;52.344;14.530;2024-03-08T08:09:26;101675.78;;;3.07;66.52
49055;BME280;35405;52.344;14.530;2024-03-08T08:11:59;101669.31;;;3.23;66.84
49055;BME280;35405;52.344;14.530;2024-03-08T08:14:26;101672.97;;;3.29;66.45
49055;BME280;35405;52.344;14.530;2024-03-08T08:16:52;101671.56;;;3.42;66.12
49055;BME280;35405;52.344;14.530;2024-03-08T08:19:18;101669.13;;;3.47;66.52
49055;BME280;35405;52.344;14.530;2024-03-08T08:21:43;101665.00;;;3.55;66.41
49055;BME280;35405;52.344;14.530;2024-03-08T08:24:11;101664.25;;;3.59;65.92
49055;BME280;35405;52.344;14.530;2024-03-08T08:26:36;101654.63;;;3.53;65.73
49055;BME280;35405;52.344;14.530;2024-03-08T08:29:01;101661.22;;;3.75;66.00
49055;BME280;35405;52.344;14.530;2024-03-08T08:31:27;101651.75;;;3.76;65.74
49055;BME280;35405;52.344;14.530;2024-03-08T08:33:52;101649.16;;;3.76;65.82
49055;BME280;35405;52.344;14.530;2024-03-08T08:36:23;101652.22;;;3.96;65.53
49055;BME280;35405;52.344;14.530;2024-03-08T08:38:49;101656.63;;;4.00;65.50
49055;BME280;35405;52.344;14.530;2024-03-08T08:41:21;101648.25;;;4.10;65.43
49055;BME280;35405;52.344;14.530;2024-03-08T08:43:47;101643.44;;;4.27;65.63
49055;BME280;35405;52.344;14.530;2024-03-08T08:46:12;101639.44;;;4.41;65.34
49055;BME280;35405;52.344;14.530;2024-03-08T08:48:39;101641.72;;;4.66;65.03
49055;BME280;35405;52.344;14.530;2024-03-08T08:51:10;101644.47;;;4.74;64.40
49055;BME280;35405;52.344;14.530;2024-03-08T08:53:42;101629.97;;;4.85;62.83
49055;BME280;35405;52.344;14.530;2024-03-08T08:56:12;101638.81;;;4.93;61.98
49055;BME280;35405;52.344;14.530;2024-03-08T08:58:41;101636.44;;;5.06;62.02
49055;BME280;35405;52.344;14.530;2024-03-08T09:01:07;101634.81;;;5.11;61.00
49055;BME280;35405;52.344;14.530;2024-03-08T09:03:33;101626.19;;;5.13;59.09
49055;BME280;35405;52.344;14.530;2024-03-08T09:06:00;101626.19;;;5.12;57.61
49055;BME280;35405;52.344;14.530;2024-03-08T09:08:25;101616.94;;;5.28;57.75
49055;BME280;35405;52.344;14.530;2024-03-08T09:10:51;101615.66;;;5.53;58.07
49055;BME280;35405;52.344;14.530;2024-03-08T09:13:16;101609.88;;;5.69;57.72
49055;BME280;35405;52.344;14.530;2024-03-08T09:15:45;101612.47;;;5.70;57.40
49055;BME280;35405;52.344;14.530;2024-03-08T09:18:13;101603.91;;;5.76;57.06
49055;BME280;35405;52.344;14.530;2024-03-08T09:20:39;101599.44;;;5.64;55.33
49055;BME280;35405;52.344;14.530;2024-03-08T09:23:07;101605.59;;;5.71;55.00
49055;BME280;35405;52.344;14.530;2024-03-08T09:25:33;101584.97;;;5.80;55.01
49055;BME280;35405;52.344;14.530;2024-03-08T09:27:59;101595.38;;;5.85;54.86
49055;BME280;35405;52.344;14.530;2024-03-08T09:30:24;101580.00;;;5.92;54.94
49055;BME280;35405;52.344;14.530;2024-03-08T09:36:00;101580.31;;;6.15;54.13
49055;BME280;35405;52.344;14.530;2024-03-08T09:38:26;101567.25;;;6.11;53.92
49055;BME280;35405;52.344;14.530;2024-03-08T09:56:23;101545.16;;;6.43;51.24
49055;BME280;35405;52.344;14.530;2024-03-08T10:05:33;101534.13;;;6.66;50.64
49055;BME280;35405;52.344;14.530;2024-03-08T10:18:20;101519.69;;;6.95;48.67
49055;BME280;35405;52.344;14.530;2024-03-08T10:24:10;101513.63;;;6.95;48.41
49055;BME280;35405;52.344;14.530;2024-03-08T10:26:40;101509.22;;;6.84;46.33
49055;BME280;35405;52.344;14.530;2024-03-08T10:29:08;101507.50;;;6.89;47.17
49055;BME280;35405;52.344;14.530;2024-03-08T10:31:45;101513.63;;;6.96;47.43
49055;BME280;35405;52.344;14.530;2024-03-08T10:34:10;101514.59;;;7.06;47.15
49055;BME280;35405;52.344;14.530;2024-03-08T10:36:36;101505.00;;;7.00;46.49
49055;BME280;35405;52.344;14.530;2024-03-08T10:39:03;101514.59;;;7.06;45.79
49055;BME280;35405;52.344;14.530;2024-03-08T10:41:32;101498.09;;;7.04;45.85
49055;BME280;35405;52.344;14.530;2024-03-08T10:44:10;101500.84;;;7.21;45.48
49055;BME280;35405;52.344;14.530;2024-03-08T10:47:01;101505.19;;;7.23;44.92
49055;BME280;35405;52.344;14.530;2024-03-08T10:49:37;101503.50;;;7.28;45.39
49055;BME280;35405;52.344;14.530;2024-03-08T10:52:04;101495.72;;;7.33;45.13
49055;BME280;35405;52.344;14.530;2024-03-08T10:54:30;101491.44;;;7.38;43.51
49055;BME280;35405;52.344;14.530;2024-03-08T10:56:57;101488.81;;;7.35;43.80
49055;BME280;35405;52.344;14.530;2024-03-08T10:59:22;101487.13;;;7.46;43.69
49055;BME280;35405;52.344;14.530;2024-03-08T11:01:48;101487.97;;;7.39;43.63
49055;BME280;35405;52.344;14.530;2024-03-08T11:04:14;101488.06;;;7.50;43.00
49055;BME280;35405;52.344;14.530;2024-03-08T11:06:45;101476.78;;;7.49;42.87
49055;BME280;35405;52.344;14.530;2024-03-08T11:14:44;101466.41;;;7.57;41.50
49055;BME280;35405;52.344;14.530;2024-03-08T11:17:13;101464.72;;;7.66;41.31
49055;BME280;35405;52.344;14.530;2024-03-08T11:19:45;101463.84;;;7.66;41.03
49055;BME280;35405;52.344;14.530;2024-03-08T12:41:18;101348.56;;;8.94;39.15
49055;BME280;35405;52.344;14.530;2024-03-08T12:44:29;101354.66;;;9.05;39.19
49055;BME280;35405;52.344;14.530;2024-03-08T12:47:21;101346.81;;;9.08;39.21
49055;BME280;35405;52.344;14.530;2024-03-08T12:50:25;101341.56;;;9.20;38.97
49055;BME280;35405;52.344;14.530;2024-03-08T12:56:04;101329.41;;;9.13;38.28
49055;BME280;35405;52.344;14.530;2024-03-08T12:59:03;101325.94;;;9.11;38.99
49055;BME280;35405;52.344;14.530;2024-03-08T13:01:54;101335.50;;;9.06;38.65
49055;BME280;35405;52.344;14.530;2024-03-08T14:24:01;101243.09;;;9.44;39.88
49055;BME280;35405;52.344;14.530;2024-03-08T14:26:27;101243.13;;;9.42;40.00
49055;BME280;35405;52.344;14.530;2024-03-08T14:28:52;101238.75;;;9.43;40.16
49055;BME280;35405;52.344;14.530;2024-03-08T14:31:20;101243.16;;;9.34;39.93
49055;BME280;35405;52.344;14.530;2024-03-08T14:33:45;101238.00;;;9.19;40.34
49055;BME280;35405;52.344;14.530;2024-03-08T14:36:14;101237.13;;;9.20;40.67
49055;BME280;35405;52.344;14.530;2024-03-08T14:38:42;101229.28;;;9.26;40.66
49055;BME280;35405;52.344;14.530;2024-03-08T14:41:07;101236.22;;;9.27;40.70
49055;BME280;35405;52.344;14.530;2024-03-08T14:43:32;101227.53;;;9.31;40.83
49055;BME280;35405;52.344;14.530;2024-03-08T14:45:58;101232.78;;;9.21;40.59
49055;BME280;35405;52.344;14.530;2024-03-08T14:48:23;101224.94;;;9.22;40.95
49055;BME280;35405;52.344;14.530;2024-03-08T14:50:48;101225.81;;;9.24;41.11
49055;BME280;35405;52.344;14.530;2024-03-08T14:53:15;101213.66;;;9.19;40.75
49055;BME280;35405;52.344;14.530;2024-03-08T14:55:42;101218.00;;;9.15;41.60
49055;BME280;35405;52.344;14.530;2024-03-08T14:58:07;101214.59;;;9.04;41.14
49055;BME280;35405;52.344;14.530;2024-03-08T15:00:34;101212.78;;;9.09;41.04
49055;BME280;35405;52.344;14.530;2024-03-08T15:02:59;101206.75;;;8.99;41.39
49055;BME280;35405;52.344;14.530;2024-03-08T15:05:27;101212.84;;;9.00;41.55
49055;BME280;35405;52.344;14.530;2024-03-08T15:07:57;101203.25;;;9.02;41.76
49055;BME280;35405;52.344;14.530;2024-03-08T15:10:28;101202.38;;;9.01;41.78
49055;BME280;35405;52.344;14.530;2024-03-08T15:12:55;101202.47;;;8.85;41.92
49055;BME280;35405;52.344;14.530;2024-03-08T15:15:24;101195.50;;;8.85;41.59
49055;BME280;35405;52.344;14.530;2024-03-08T15:17:50;101199.84;;;8.85;41.23
49055;BME280;35405;52.344;14.530;2024-03-08T15:20:16;101192.00;;;8.86;41.82
49055;BME280;35405;52.344;14.530;2024-03-08T15:22:48;101195.53;;;8.84;42.15
49055;BME280;35405;52.344;14.530;2024-03-08T15:25:14;101195.50;;;8.87;41.84
49055;BME280;35405;52.344;14.530;2024-03-08T15:27:46;101191.19;;;8.83;41.58
49055;BME280;35405;52.344;14.530;2024-03-08T15:30:11;101186.78;;;8.86;41.87
49055;BME280;35405;52.344;14.530;2024-03-08T15:32:47;101185.09;;;8.84;42.41
49055;BME280;35405;52.344;14.530;2024-03-08T15:35:22;101179.00;;;8.80;42.23
49055;BME280;35405;52.344;14.530;2024-03-08T15:37:47;101184.28;;;8.68;42.83
49055;BME280;35405;52.344;14.530;2024-03-08T15:40:15;101191.22;;;8.69;42.97
49055;BME280;35405;52.344;14.530;2024-03-08T15:42:56;101187.75;;;8.64;42.65
49055;BME280;35405;52.344;14.530;2024-03-08T15:45:24;101184.28;;;8.62;43.15
49055;BME280;35405;52.344;14.530;2024-03-08T15:47:50;101181.69;;;8.52;43.01
49055;BME280;35405;52.344;14.530;2024-03-08T15:50:15;101180.81;;;8.55;43.44
49055;BME280;35405;52.344;14.530;2024-03-08T15:52:44;101178.22;;;8.49;43.57
49055;BME280;35405;52.344;14.530;2024-03-08T15:55:14;101173.00;;;8.43;43.40
49055;BME280;35405;52.344;14.530;2024-03-08T15:57:41;101178.22;;;8.38;43.47
49055;BME280;35405;52.344;14.530;2024-03-08T16:00:06;101175.63;;;8.43;42.99
49055;BME280;35405;52.344;14.530;2024-03-08T16:02:40;101171.28;;;8.33;43.51
49055;BME280;35405;52.344;14.530;2024-03-08T16:05:06;101176.50;;;8.26;43.74
49055;BME280;35405;52.344;14.530;2024-03-08T16:07:32;101186.03;;;8.27;43.61
49055;BME280;35405;52.344;14.530;2024-03-08T16:09:57;101173.88;;;8.17;43.64
49055;BME280;35405;52.344;14.530;2024-03-08T16:12:22;101177.34;;;8.16;43.28
49055;BME280;35405;52.344;14.530;2024-03-08T16:14:48;101174.78;;;8.07;43.67
49055;BME280;35405;52.344;14.530;2024-03-08T16:17:19;101173.91;;;7.99;43.00